createdAt,value
2022-09-15T00:00:00.564Z,98743.22
2022-09-15T00:02:31.570Z,98739.59
2022-09-15T00:05:05.896Z,98745.14
2022-09-15T00:07:36.132Z,98745.14
2022-09-15T00:10:11.896Z,98735.30
2022-09-15T00:12:41.861Z,98726.56
2022-09-15T00:15:14.871Z,98709.22
2022-09-15T00:17:46.713Z,98709.95
2022-09-15T00:20:17.010Z,98711.33
2022-09-15T00:22:47.488Z,98707.78
2022-09-15T00:25:17.182Z,98707.69
2022-09-15T00:27:47.343Z,98697.89
2022-09-15T00:30:17.151Z,98705.11
2022-09-15T00:32:46.977Z,98702.77
2022-09-15T00:35:16.931Z,98697.20
2022-09-15T00:37:46.594Z,98711.09
2022-09-15T00:40:16.621Z,98711.09
2022-09-15T00:42:46.421Z,98725.05
2022-09-15T00:45:17.748Z,98719.56
2022-09-15T00:47:47.329Z,98715.97
2022-09-15T00:50:19.711Z,98720.29
2022-09-15T00:52:55.235Z,98721.30
2022-09-15T00:55:28.948Z,98713.84
2022-09-15T00:58:06.663Z,98716.38
2022-09-15T01:00:36.882Z,98721.06
2022-09-15T01:03:07.002Z,98717.70
2022-09-15T01:05:40.839Z,98714.76
2022-09-15T01:08:13.386Z,98713.38
2022-09-15T01:10:44.851Z,98716.38
2022-09-15T01:13:15.887Z,98718.03
2022-09-15T01:19:06.955Z,98727.80
2022-09-15T01:21:58.767Z,98710.76
2022-09-15T01:25:02.888Z,98710.76
2022-09-15T01:28:01.223Z,98712.16
2022-09-15T01:30:34.216Z,98716.55
2022-09-15T01:33:15.880Z,98718.00
2022-09-15T01:35:51.682Z,98720.23
2022-09-15T01:38:39.874Z,98725.50
2022-09-15T01:41:21.147Z,98722.69
2022-09-15T01:43:57.084Z,98720.88
2022-09-15T01:46:30.952Z,98726.66
2022-09-15T01:49:03.085Z,98730.55
2022-09-15T01:51:37.703Z,98720.81
2022-09-15T01:54:08.827Z,98710.59
2022-09-15T01:56:41.619Z,98713.58
2022-09-15T01:59:11.802Z,98713.62
2022-09-15T02:01:51.896Z,98720.32
2022-09-15T02:04:27.749Z,98710.77
2022-09-15T02:07:07.186Z,98722.30
2022-09-15T02:09:43.260Z,98722.41
2022-09-15T02:12:34.028Z,98723.45
2022-09-15T02:15:09.145Z,98731.67
2022-09-15T02:17:45.784Z,98734.08
2022-09-15T02:20:22.893Z,98736.45
2022-09-15T02:22:55.759Z,98746.00
2022-09-15T02:25:29.861Z,98745.17
2022-09-15T02:28:03.035Z,98750.20
2022-09-15T02:30:36.382Z,98750.20
2022-09-15T02:33:10.535Z,98750.53
2022-09-15T02:35:41.863Z,98753.47
2022-09-15T02:38:13.140Z,98755.84
2022-09-15T02:40:44.959Z,98754.16
2022-09-15T02:43:18.038Z,98754.86
2022-09-15T02:45:49.683Z,98753.50
2022-09-15T02:48:19.350Z,98755.81
2022-09-15T02:50:49.144Z,98754.98
2022-09-15T02:53:24.640Z,98752.02
2022-09-15T02:55:54.132Z,98749.89
2022-09-15T02:58:23.932Z,98747.19
2022-09-15T03:00:55.683Z,98756.72
2022-09-15T03:03:25.796Z,98766.06
2022-09-15T03:05:57.257Z,98762.31
2022-09-15T03:08:28.605Z,98758.34
2022-09-15T03:10:59.938Z,98760.36
2022-09-15T03:13:29.735Z,98767.34
2022-09-15T03:15:59.838Z,98775.30
2022-09-15T03:18:29.687Z,98775.30
2022-09-15T03:20:59.475Z,98777.83
2022-09-15T03:23:29.358Z,98772.17
2022-09-15T03:26:02.030Z,98766.69
2022-09-15T03:28:32.143Z,98782.34
2022-09-15T03:31:02.997Z,98798.59
2022-09-15T03:33:33.060Z,98794.04
2022-09-15T03:36:03.239Z,98788.75
2022-09-15T03:38:33.232Z,98793.06
2022-09-15T03:41:07.538Z,98807.88
2022-09-15T03:43:38.185Z,98825.03
2022-09-15T03:46:07.811Z,98825.03
2022-09-15T03:48:41.941Z,98840.23
2022-09-15T03:51:12.222Z,98840.23
2022-09-15T03:53:43.181Z,98847.55
2022-09-15T03:56:22.069Z,98842.89
2022-09-15T03:58:52.622Z,98831.44
2022-09-15T04:01:24.054Z,98820.97
2022-09-15T04:03:54.337Z,98815.65
2022-09-15T04:06:25.673Z,98818.81
2022-09-15T04:08:57.999Z,98822.17
2022-09-15T04:11:38.237Z,98831.44
2022-09-15T04:14:07.769Z,98835.77
2022-09-15T04:16:37.673Z,98845.13
2022-09-15T04:19:07.616Z,98855.59
2022-09-15T04:21:37.882Z,98866.40
2022-09-15T04:24:07.585Z,98859.75
2022-09-15T04:26:38.699Z,98856.22
2022-09-15T04:29:14.228Z,98848.13
2022-09-15T04:31:44.655Z,98860.76
2022-09-15T04:34:14.391Z,98860.42
2022-09-15T04:36:44.186Z,98843.81
2022-09-15T04:39:13.992Z,98851.11
2022-09-15T04:41:43.806Z,98856.77
2022-09-15T04:44:13.665Z,98857.59
2022-09-15T04:46:43.496Z,98865.75
2022-09-15T04:49:13.327Z,98866.58
2022-09-15T04:51:43.178Z,98867.57
2022-09-15T04:54:12.929Z,98872.56
2022-09-15T04:56:42.744Z,98876.88
2022-09-15T04:59:17.656Z,98876.05
2022-09-15T05:01:48.310Z,98879.33
2022-09-15T05:04:18.382Z,98871.22
2022-09-15T05:06:48.173Z,98865.41
2022-09-15T05:09:17.764Z,98862.09
2022-09-15T05:11:47.582Z,98860.92
2022-09-15T05:14:17.262Z,98857.94
2022-09-15T05:16:47.095Z,98860.42
2022-09-15T05:19:16.689Z,98863.57
2022-09-15T05:21:46.578Z,98869.22
2022-09-15T05:24:16.472Z,98882.53
2022-09-15T05:26:46.260Z,98885.03
2022-09-15T05:29:16.539Z,98881.87
2022-09-15T05:31:46.421Z,98891.02
2022-09-15T05:34:16.001Z,98887.34
2022-09-15T05:36:45.841Z,98887.02
2022-09-15T05:39:15.377Z,98884.97
2022-09-15T05:41:45.178Z,98901.60
2022-09-15T05:44:17.083Z,98900.77
2022-09-15T05:46:49.387Z,98909.92
2022-09-15T05:49:31.264Z,98910.23
2022-09-15T05:52:03.139Z,98905.25
2022-09-15T05:57:48.388Z,98911.56
2022-09-15T06:00:20.065Z,98905.70
2022-09-15T06:02:49.947Z,98903.02
2022-09-15T06:05:19.458Z,98902.45
2022-09-15T06:07:49.481Z,98899.94
2022-09-15T06:10:19.064Z,98901.45
2022-09-15T06:12:49.988Z,98897.61
2022-09-15T06:15:21.814Z,98896.70
2022-09-15T06:17:52.166Z,98886.56
2022-09-15T06:20:21.667Z,98888.20
2022-09-15T06:22:51.731Z,98892.66
2022-09-15T06:25:21.245Z,98891.53
2022-09-15T06:27:51.606Z,98890.05
2022-09-15T06:30:21.323Z,98897.56
2022-09-15T06:32:51.133Z,98898.88
2022-09-15T06:35:21.941Z,98898.48
2022-09-15T06:37:52.016Z,98905.25
2022-09-15T06:40:21.782Z,98886.93
2022-09-15T06:42:54.605Z,98886.93
2022-09-15T06:45:24.410Z,98898.63
2022-09-15T06:48:07.617Z,98891.92
2022-09-15T06:50:26.067Z,98899.44
2022-09-15T06:52:55.861Z,98907.69
2022-09-15T06:55:25.792Z,98916.52
2022-09-15T06:58:01.587Z,98919.63
2022-09-15T07:00:31.395Z,98919.08
2022-09-15T07:03:01.362Z,98919.08
2022-09-15T07:05:31.505Z,98918.52
2022-09-15T07:08:01.115Z,98927.77
2022-09-15T07:10:30.944Z,98927.41
2022-09-15T07:13:01.348Z,98927.50
2022-09-15T07:15:31.700Z,98934.62
2022-09-15T07:18:01.278Z,98948.37
2022-09-15T07:20:31.470Z,98953.62
2022-09-15T07:23:01.257Z,98952.34
2022-09-15T07:25:31.090Z,98946.73
2022-09-15T07:28:00.892Z,98947.98
2022-09-15T07:30:30.771Z,98952.83
2022-09-15T07:33:00.534Z,98963.43
2022-09-15T07:35:30.369Z,98968.50
2022-09-15T07:38:00.622Z,98968.70
2022-09-15T07:40:31.885Z,98970.83
2022-09-15T07:43:01.949Z,98965.95
2022-09-15T07:45:32.910Z,98974.80
2022-09-15T07:48:03.037Z,98976.23
2022-09-15T07:50:34.889Z,98985.48
2022-09-15T07:53:06.226Z,98993.48
2022-09-15T07:55:35.775Z,98989.08
2022-09-15T07:58:05.988Z,98995.76
2022-09-15T08:00:35.868Z,98995.66
2022-09-15T08:03:06.653Z,99000.26
2022-09-15T08:05:40.332Z,98990.75
2022-09-15T08:08:07.831Z,98990.75
2022-09-15T08:10:41.292Z,99009.30
2022-09-15T08:13:11.092Z,99009.94
2022-09-15T08:15:41.161Z,99005.97
2022-09-15T08:18:12.270Z,99009.38
2022-09-15T08:20:43.183Z,99011.48
2022-09-15T08:23:13.064Z,99016.19
2022-09-15T08:25:44.811Z,99013.39
2022-09-15T08:28:14.346Z,99016.81
2022-09-15T08:30:45.120Z,99012.46
2022-09-15T08:33:14.986Z,99013.87
2022-09-15T08:35:44.793Z,99010.30
2022-09-15T08:38:19.823Z,99010.45
2022-09-15T08:40:49.692Z,99004.20
2022-09-15T08:43:23.500Z,99004.34
2022-09-15T08:46:03.137Z,98992.20
2022-09-15T08:48:38.845Z,98988.66
2022-09-15T08:51:14.156Z,98977.86
2022-09-15T08:53:53.128Z,98973.83
2022-09-15T08:56:22.717Z,98975.17
2022-09-15T08:59:00.666Z,98982.33
2022-09-15T09:02:07.004Z,98980.31
2022-09-15T09:05:13.244Z,98982.74
2022-09-15T09:08:02.880Z,98981.48
2022-09-15T09:10:39.542Z,98976.59
2022-09-15T09:13:32.053Z,98969.50
2022-09-15T09:16:12.536Z,98970.38
2022-09-15T09:19:04.689Z,98973.34
2022-09-15T09:21:40.324Z,98979.05
2022-09-15T09:24:27.537Z,98961.19
2022-09-15T09:26:58.573Z,98961.19
2022-09-15T09:29:37.251Z,98963.39
2022-09-15T09:32:10.236Z,98963.39
2022-09-15T09:34:45.634Z,98972.03
2022-09-15T09:37:17.538Z,98968.09
2022-09-15T09:39:49.440Z,98973.11
2022-09-15T09:42:20.524Z,98969.41
2022-09-15T09:44:50.786Z,98975.50
2022-09-15T09:47:33.354Z,98974.26
2022-09-15T09:50:03.267Z,98981.16
2022-09-15T09:52:38.906Z,98992.33
2022-09-15T09:55:23.829Z,98994.08
2022-09-15T09:57:54.182Z,98987.67
2022-09-15T10:00:35.294Z,98985.82
2022-09-15T10:03:21.798Z,98980.80
2022-09-15T10:06:24.099Z,98978.24
2022-09-15T10:09:02.685Z,98974.61
2022-09-15T10:11:44.391Z,98968.66
2022-09-15T10:14:25.343Z,98974.66
2022-09-15T10:17:07.469Z,98968.37
2022-09-15T10:19:54.999Z,98970.27
2022-09-15T10:22:39.960Z,98971.84
2022-09-15T10:25:18.595Z,98968.39
2022-09-15T10:28:03.808Z,98954.70
2022-09-15T10:30:33.630Z,98954.70
2022-09-15T10:33:31.105Z,98971.51
2022-09-15T10:36:20.445Z,98962.08
2022-09-15T10:38:53.132Z,98969.61
2022-09-15T10:41:25.767Z,98964.06
2022-09-15T10:44:21.251Z,98964.84
2022-09-15T10:46:57.163Z,98973.05
2022-09-15T10:49:48.001Z,98965.91
2022-09-15T10:52:23.773Z,98959.80
2022-09-15T10:55:12.960Z,98957.76
2022-09-15T10:58:24.824Z,98963.24
2022-09-15T11:01:30.513Z,98958.78
2022-09-15T11:04:35.453Z,98953.61
2022-09-15T11:07:19.766Z,98951.52
2022-09-15T11:09:58.460Z,98954.11
2022-09-15T11:12:34.141Z,98954.11
2022-09-15T11:15:23.139Z,98958.34
2022-09-15T11:17:59.426Z,98958.34
2022-09-15T11:20:49.951Z,98956.50
2022-09-15T11:23:32.621Z,98946.38
2022-09-15T11:26:13.493Z,98946.38
2022-09-15T11:28:56.435Z,98946.40
2022-09-15T11:31:41.201Z,98948.87
2022-09-15T11:34:20.976Z,98943.08
2022-09-15T11:37:05.379Z,98933.47
2022-09-15T11:39:54.319Z,98940.80
2022-09-15T11:42:36.184Z,98944.11
2022-09-15T11:45:09.661Z,98936.63
2022-09-15T11:47:51.656Z,98932.59
2022-09-15T11:50:26.014Z,98920.11
2022-09-15T11:53:04.637Z,98910.14
2022-09-15T11:55:40.416Z,98910.45
2022-09-15T11:58:36.216Z,98910.45
2022-09-15T12:01:12.877Z,98917.30
2022-09-15T12:04:04.043Z,98920.47
2022-09-15T12:06:46.189Z,98928.09
2022-09-15T12:09:18.640Z,98929.20
2022-09-15T12:11:54.335Z,98920.47
2022-09-15T12:14:29.766Z,98896.70
2022-09-15T12:17:00.438Z,98896.70
2022-09-15T12:19:45.355Z,98912.20
2022-09-15T12:22:46.574Z,98915.56
2022-09-15T12:25:39.303Z,98908.83
2022-09-15T12:28:28.255Z,98917.59
2022-09-15T12:31:29.981Z,98910.70
2022-09-15T12:34:07.069Z,98911.95
2022-09-15T12:36:48.257Z,98911.63
2022-09-15T12:39:47.146Z,98908.98
2022-09-15T12:42:30.879Z,98908.59
2022-09-15T12:45:11.223Z,98897.43
2022-09-15T12:47:51.806Z,98900.71
2022-09-15T12:50:24.777Z,98900.68
2022-09-15T12:53:02.129Z,98895.82
2022-09-15T12:55:40.857Z,98898.00
2022-09-15T12:58:13.484Z,98900.59
2022-09-15T13:01:13.993Z,98896.49
2022-09-15T13:03:32.886Z,98895.70
2022-09-15T13:06:23.617Z,98892.83
2022-09-15T13:09:28.942Z,98890.67
2022-09-15T13:12:05.425Z,98889.64
2022-09-15T13:14:46.205Z,98888.06
2022-09-15T13:17:20.161Z,98880.30
2022-09-15T13:20:00.528Z,98883.16
2022-09-15T13:22:37.684Z,98882.75
2022-09-15T13:25:14.574Z,98877.44
2022-09-15T13:28:02.656Z,98882.70
2022-09-15T13:30:40.037Z,98879.02
2022-09-15T13:36:24.564Z,98882.87
2022-09-15T13:39:10.610Z,98878.45
2022-09-15T13:42:12.379Z,98879.04
2022-09-15T13:44:48.341Z,98881.33
2022-09-15T13:47:36.559Z,98881.91
2022-09-15T13:50:09.801Z,98884.16
2022-09-15T13:53:03.475Z,98888.97
2022-09-15T13:55:39.466Z,98879.86
2022-09-15T14:01:03.595Z,98883.33
2022-09-15T14:03:37.129Z,98883.33
2022-09-15T14:06:18.323Z,98884.53
2022-09-15T14:08:49.773Z,98888.52
2022-09-15T14:11:25.198Z,98879.20
2022-09-15T14:13:56.640Z,98881.50
2022-09-15T14:16:30.784Z,98877.55
2022-09-15T14:19:05.001Z,98879.66
2022-09-15T14:21:36.195Z,98884.38
2022-09-15T14:24:16.156Z,98879.11
2022-09-15T14:26:46.826Z,98881.77
2022-09-15T14:29:21.394Z,98881.39
2022-09-15T14:31:51.651Z,98882.42
2022-09-15T14:34:24.648Z,98880.88
2022-09-15T14:37:10.317Z,98880.86
2022-09-15T14:39:40.447Z,98882.42
2022-09-15T14:42:13.977Z,98879.09
2022-09-15T14:47:28.124Z,98879.45
2022-09-15T14:50:22.589Z,98882.16
2022-09-15T14:53:01.119Z,98876.08
2022-09-15T14:55:40.402Z,98874.48
2022-09-15T14:58:24.535Z,98872.77
2022-09-15T15:01:06.744Z,98866.33
2022-09-15T15:04:00.685Z,98866.33
2022-09-15T15:06:39.334Z,98874.84
2022-09-15T15:09:11.892Z,98881.47
2022-09-15T15:11:43.963Z,98879.50
2022-09-15T15:14:15.834Z,98870.99
2022-09-15T15:16:54.091Z,98874.84
2022-09-15T15:19:40.410Z,98873.42
2022-09-15T15:22:17.031Z,98878.47
2022-09-15T15:24:49.999Z,98867.96
2022-09-15T15:27:38.008Z,98867.58
2022-09-15T15:30:29.146Z,98865.24
2022-09-15T15:33:22.825Z,98863.44
2022-09-15T15:36:13.161Z,98864.50
2022-09-15T15:38:47.557Z,98869.66
2022-09-15T15:41:25.550Z,98873.82
2022-09-15T15:44:10.124Z,98870.31
2022-09-15T15:46:51.447Z,98877.75
2022-09-15T15:49:23.621Z,98880.94
2022-09-15T15:51:55.435Z,98875.97
2022-09-15T15:54:26.995Z,98879.47
2022-09-15T15:56:59.498Z,98871.31
2022-09-15T15:59:30.029Z,98875.13
2022-09-15T16:01:59.023Z,98877.48
2022-09-15T16:04:28.693Z,98873.37
2022-09-15T16:06:58.464Z,98872.41
2022-09-15T16:09:28.095Z,98878.87
2022-09-15T16:14:27.842Z,98883.70
2022-09-15T16:17:00.599Z,98885.12
2022-09-15T16:19:30.887Z,98881.91
2022-09-15T16:22:02.204Z,98882.04
2022-09-15T16:24:37.414Z,98896.31
2022-09-15T16:27:10.306Z,98899.86
2022-09-15T16:29:43.966Z,98911.11
2022-09-15T16:32:22.389Z,98911.58
2022-09-15T16:34:53.886Z,98916.73
2022-09-15T16:37:23.879Z,98913.70
2022-09-15T16:39:54.829Z,98905.09
2022-09-15T16:42:24.773Z,98910.42
2022-09-15T16:44:54.584Z,98910.42
2022-09-15T16:47:25.843Z,98921.08
2022-09-15T16:49:55.851Z,98918.63
2022-09-15T16:52:25.829Z,98915.48
2022-09-15T16:54:58.228Z,98914.05
2022-09-15T16:57:34.953Z,98916.49
2022-09-15T17:00:06.282Z,98913.86
2022-09-15T17:02:38.127Z,98915.73
2022-09-15T17:05:18.229Z,98912.33
2022-09-15T17:07:47.845Z,98916.66
2022-09-15T17:10:17.682Z,98906.53
2022-09-15T17:12:47.597Z,98908.72
2022-09-15T17:15:30.105Z,98903.37
2022-09-15T17:17:59.940Z,98912.51
2022-09-15T17:20:30.045Z,98914.30
2022-09-15T17:22:59.766Z,98923.88
2022-09-15T17:25:35.520Z,98924.04
2022-09-15T17:28:06.556Z,98920.22
2022-09-15T17:30:36.456Z,98925.23
2022-09-15T17:33:09.934Z,98929.61
2022-09-15T17:35:41.468Z,98932.78
2022-09-15T17:38:11.496Z,98927.86
2022-09-15T17:40:43.198Z,98930.20
2022-09-15T17:43:18.191Z,98931.58
2022-09-15T17:45:49.933Z,98930.77
2022-09-15T17:48:26.061Z,98926.92
2022-09-15T17:50:56.950Z,98936.02
2022-09-15T17:53:29.154Z,98936.02
2022-09-15T17:55:59.102Z,98927.23
2022-09-15T17:58:31.508Z,98940.05
2022-09-15T18:01:02.872Z,98949.41
2022-09-15T18:03:35.264Z,98954.15
2022-09-15T18:06:08.041Z,98943.44
2022-09-15T18:08:38.134Z,98951.23
2022-09-15T18:11:09.083Z,98947.83
2022-09-15T18:13:39.013Z,98957.09
2022-09-15T18:16:14.696Z,98959.22
2022-09-15T18:18:45.162Z,98961.33
2022-09-15T18:21:28.700Z,98961.33
2022-09-15T18:23:59.668Z,98967.84
2022-09-15T18:26:33.433Z,98974.93
2022-09-15T18:29:03.608Z,98971.55
2022-09-15T18:31:33.561Z,98972.27
2022-09-15T18:34:03.433Z,98976.88
2022-09-15T18:36:33.389Z,98976.38
2022-09-15T18:39:05.621Z,98978.28
2022-09-15T18:41:37.720Z,98983.27
2022-09-15T18:44:13.600Z,98980.29
2022-09-15T18:46:43.854Z,98981.29
2022-09-15T18:49:13.622Z,98985.84
2022-09-15T18:51:52.094Z,98993.48
2022-09-15T18:54:16.402Z,98993.48
2022-09-15T18:56:48.385Z,98992.98
2022-09-15T18:59:18.296Z,98992.99
2022-09-15T19:01:50.625Z,98995.31
2022-09-15T19:04:21.136Z,98998.52
2022-09-15T19:06:52.391Z,99007.04
2022-09-15T19:09:22.323Z,99005.54
2022-09-15T19:11:53.380Z,99004.41
2022-09-15T19:14:27.878Z,99000.56
2022-09-15T19:16:58.727Z,99008.05
2022-09-15T19:19:29.829Z,99013.69
2022-09-15T19:21:59.738Z,99009.03
2022-09-15T19:24:31.164Z,99012.70
2022-09-15T19:27:03.490Z,99015.04
2022-09-15T19:29:35.889Z,99015.33
2022-09-15T19:32:11.437Z,99013.01
2022-09-15T19:34:43.316Z,99023.30
2022-09-15T19:37:18.503Z,99017.17
2022-09-15T19:39:48.036Z,99020.00
2022-09-15T19:42:17.611Z,99012.09
2022-09-15T19:44:54.288Z,99019.39
2022-09-15T19:47:24.879Z,99021.85
2022-09-15T19:49:55.151Z,99019.91
2022-09-15T19:52:24.729Z,99028.47
2022-09-15T19:54:55.794Z,99023.05
2022-09-15T19:57:29.791Z,99027.86
2022-09-15T19:59:59.595Z,99027.86
2022-09-15T20:02:31.863Z,99027.30
2022-09-15T20:07:52.674Z,99030.87
2022-09-15T20:10:23.248Z,99032.50
2022-09-15T20:12:54.026Z,99032.29
2022-09-15T20:15:24.229Z,99035.95
2022-09-15T20:17:54.863Z,99024.26
2022-09-15T20:20:25.873Z,99026.08
2022-09-15T20:22:56.646Z,99029.23
2022-09-15T20:25:26.853Z,99030.88
2022-09-15T20:27:57.031Z,99032.34
2022-09-15T20:30:27.708Z,99031.44
2022-09-15T20:32:58.573Z,99029.48
2022-09-15T20:35:27.547Z,99029.33
2022-09-15T20:37:58.398Z,99032.09
2022-09-15T20:40:29.312Z,99036.69
2022-09-15T20:42:59.877Z,99040.95
2022-09-15T20:45:32.835Z,99035.26
2022-09-15T20:48:03.330Z,99038.09
2022-09-15T20:50:35.645Z,99034.07
2022-09-15T20:53:06.688Z,99038.01
2022-09-15T20:55:36.951Z,99035.18
2022-09-15T20:58:08.292Z,99032.23
2022-09-15T21:00:38.443Z,99028.70
2022-09-15T21:03:08.914Z,99023.73
2022-09-15T21:05:38.776Z,99024.44
2022-09-15T21:08:11.754Z,99026.41
2022-09-15T21:10:44.650Z,99035.96
2022-09-15T21:13:14.554Z,99022.34
2022-09-15T21:15:44.388Z,99034.34
2022-09-15T21:18:14.222Z,99034.47
2022-09-15T21:20:44.067Z,99047.89
2022-09-15T21:23:13.980Z,99051.50
2022-09-15T21:25:43.979Z,99052.67
2022-09-15T21:28:14.280Z,99048.78
2022-09-15T21:30:44.456Z,99046.62
2022-09-15T21:33:14.282Z,99048.63
2022-09-15T21:35:44.096Z,99049.27
2022-09-15T21:38:13.709Z,99050.25
2022-09-15T21:40:48.446Z,99050.37
2022-09-15T21:43:18.731Z,99054.27
2022-09-15T21:45:48.576Z,99059.12
2022-09-15T21:48:18.596Z,99057.80
2022-09-15T21:50:55.283Z,99056.51
2022-09-15T21:53:25.580Z,99060.83
2022-09-15T21:55:56.711Z,99064.92
2022-09-15T21:58:28.179Z,99062.31
2022-09-15T22:00:57.786Z,99067.80
2022-09-15T22:03:28.297Z,99068.14
2022-09-15T22:05:59.200Z,99072.27
2022-09-15T22:08:29.301Z,99073.67
2022-09-15T22:11:02.110Z,99058.33
2022-09-15T22:13:31.932Z,99058.33
2022-09-15T22:16:07.782Z,99072.16
2022-09-15T22:18:39.502Z,99074.81
2022-09-15T22:21:09.793Z,99081.37
2022-09-15T22:23:40.150Z,99080.57
2022-09-15T22:26:12.242Z,99091.30
2022-09-15T22:28:42.086Z,99106.77
2022-09-15T22:31:13.806Z,99106.77
2022-09-15T22:33:44.101Z,99104.64
2022-09-15T22:36:26.571Z,99104.19
2022-09-15T22:38:55.086Z,99101.38
2022-09-15T22:41:26.430Z,99110.17
2022-09-15T22:43:56.501Z,99105.93
2022-09-15T22:46:26.470Z,99101.27
2022-09-15T22:48:56.328Z,99107.45
2022-09-15T22:51:26.157Z,99102.55
2022-09-15T22:53:58.512Z,99108.42
2022-09-15T22:56:28.448Z,99109.56
2022-09-15T22:58:58.717Z,99115.55
2022-09-15T23:01:31.342Z,99112.89
2022-09-15T23:04:02.888Z,99106.91
2022-09-15T23:06:34.854Z,99103.61
2022-09-15T23:09:07.701Z,99111.23
2022-09-15T23:11:40.382Z,99104.38
2022-09-15T23:14:18.026Z,99111.59
2022-09-15T23:16:47.980Z,99104.66
2022-09-15T23:19:17.906Z,99099.63
2022-09-15T23:21:47.711Z,99102.09
2022-09-15T23:24:17.519Z,99100.45
2022-09-15T23:26:47.312Z,99097.68
2022-09-15T23:29:17.254Z,99102.73
2022-09-15T23:31:47.187Z,99095.29
2022-09-15T23:34:19.101Z,99096.64
2022-09-15T23:36:48.926Z,99101.09
2022-09-15T23:39:18.929Z,99100.70
2022-09-15T23:41:48.732Z,99104.78
2022-09-15T23:44:19.370Z,99095.64
2022-09-15T23:46:49.401Z,99104.34
2022-09-15T23:49:19.025Z,99109.06
2022-09-15T23:51:48.820Z,99113.44
2022-09-15T23:54:18.635Z,99116.47
2022-09-15T23:56:48.456Z,99118.85
2022-09-15T23:59:20.359Z,99120.33
